createdAt,value
2022-11-29T00:02:25.295Z,101105.53
2022-11-29T00:04:58.456Z,101109.91
2022-11-29T00:07:29.092Z,101100.97
2022-11-29T00:10:00.442Z,101109.38
2022-11-29T00:12:31.149Z,101101.63
2022-11-29T00:15:01.369Z,101102.31
2022-11-29T00:17:31.934Z,101111.22
2022-11-29T00:20:02.879Z,101105.13
2022-11-29T00:22:33.369Z,101116.25
2022-11-29T00:25:04.295Z,101124.16
2022-11-29T00:27:35.015Z,101120.56
2022-11-29T00:30:06.019Z,101126.59
2022-11-29T00:32:37.381Z,101122.75
2022-11-29T00:35:13.324Z,101129.06
2022-11-29T00:37:43.889Z,101128.06
2022-11-29T00:40:14.514Z,101128.69
2022-11-29T00:42:48.245Z,101127.28
2022-11-29T00:45:18.765Z,101125.19
2022-11-29T00:47:49.327Z,101127.75
2022-11-29T00:50:28.930Z,101119.47
2022-11-29T00:52:59.457Z,101131.25
2022-11-29T00:55:30.396Z,101124.47
2022-11-29T00:58:00.992Z,101119.69
2022-11-29T01:00:31.759Z,101120.81
2022-11-29T01:03:03.352Z,101117.22
2022-11-29T01:05:34.688Z,101116.38
2022-11-29T01:08:06.063Z,101118.72
2022-11-29T01:10:36.670Z,101112.13
2022-11-29T01:13:07.661Z,101119.16
2022-11-29T01:15:38.427Z,101109.16
2022-11-29T01:18:09.494Z,101117.75
2022-11-29T01:20:39.909Z,101113.03
2022-11-29T01:23:10.446Z,101111.63
2022-11-29T01:25:40.891Z,101114.34
2022-11-29T01:28:11.425Z,101116.50
2022-11-29T01:30:41.913Z,101119.06
2022-11-29T01:33:12.719Z,101119.41
2022-11-29T01:35:52.090Z,101114.09
2022-11-29T01:38:25.435Z,101110.88
2022-11-29T01:41:05.107Z,101108.44
2022-11-29T01:43:52.314Z,101098.22
2022-11-29T01:46:25.293Z,101099.13
2022-11-29T01:48:58.524Z,101096.72
2022-11-29T01:51:30.108Z,101095.41
2022-11-29T01:54:03.013Z,101089.75
2022-11-29T01:56:35.028Z,101079.38
2022-11-29T01:59:09.394Z,101086.66
2022-11-29T02:01:40.538Z,101082.41
2022-11-29T02:04:12.164Z,101082.94
2022-11-29T02:06:43.131Z,101062.09
2022-11-29T02:09:21.643Z,101080.47
2022-11-29T02:12:03.880Z,101066.47
2022-11-29T02:15:09.013Z,101061.28
2022-11-29T02:17:55.780Z,101050.03
2022-11-29T02:21:02.441Z,101056.25
2022-11-29T02:24:05.591Z,101042.47
2022-11-29T02:26:57.363Z,101034.75
2022-11-29T02:30:01.317Z,101024.84
2022-11-29T02:32:50.014Z,101031.34
2022-11-29T02:35:53.908Z,101027.41
2022-11-29T02:38:24.242Z,101032.38
2022-11-29T02:41:07.287Z,101029.38
2022-11-29T02:44:14.083Z,101025.28
2022-11-29T02:46:51.456Z,101018.94
2022-11-29T02:49:39.899Z,101015.38
2022-11-29T02:52:34.231Z,101022.66
2022-11-29T02:55:49.507Z,101020.41
2022-11-29T02:58:37.607Z,101014.81
2022-11-29T03:01:23.101Z,101005.81
2022-11-29T03:03:56.450Z,101016.78
2022-11-29T03:06:55.615Z,101005.59
2022-11-29T03:09:32.255Z,100993.47
2022-11-29T03:12:05.606Z,100989.31
2022-11-29T03:15:03.468Z,100992.00
2022-11-29T03:18:24.771Z,100982.22
2022-11-29T03:21:20.701Z,100978.13
2022-11-29T03:23:58.908Z,100974.63
2022-11-29T03:27:00.517Z,100979.31
2022-11-29T03:29:55.681Z,100975.97
2022-11-29T03:32:42.012Z,100969.97
2022-11-29T03:35:57.118Z,100964.88
2022-11-29T03:38:46.936Z,100949.94
2022-11-29T03:41:19.973Z,100938.88
2022-11-29T03:44:28.067Z,100941.31
2022-11-29T03:47:06.292Z,100956.25
2022-11-29T03:50:12.002Z,100941.69
2022-11-29T03:52:54.032Z,100938.00
2022-11-29T03:56:11.369Z,100928.22
2022-11-29T03:58:51.514Z,100918.50
2022-11-29T04:01:43.867Z,100904.19
2022-11-29T04:04:27.014Z,100902.53
2022-11-29T04:07:12.594Z,100910.25
2022-11-29T04:10:05.623Z,100902.78
2022-11-29T04:13:10.602Z,100899.44
2022-11-29T04:16:08.542Z,100899.81
2022-11-29T04:18:58.671Z,100908.50
2022-11-29T04:21:35.577Z,100900.59
2022-11-29T04:24:27.759Z,100891.25
2022-11-29T04:27:12.862Z,100894.16
2022-11-29T04:29:52.359Z,100890.59
2022-11-29T04:32:44.017Z,100886.88
2022-11-29T04:35:20.442Z,100889.78
2022-11-29T04:38:02.450Z,100870.63
2022-11-29T04:40:44.246Z,100862.72
2022-11-29T04:43:41.252Z,100858.13
2022-11-29T04:46:21.432Z,100853.59
2022-11-29T04:48:54.457Z,100857.56
2022-11-29T04:51:33.386Z,100866.56
2022-11-29T04:54:12.559Z,100857.41
2022-11-29T04:56:45.195Z,100861.56
2022-11-29T04:59:54.041Z,100846.63
2022-11-29T05:02:34.202Z,100840.00
2022-11-29T05:05:29.241Z,100836.25
2022-11-29T05:08:26.516Z,100830.44
2022-11-29T05:11:26.344Z,100828.44
2022-11-29T05:14:00.678Z,100821.81
2022-11-29T05:16:49.762Z,100816.41
2022-11-29T05:19:35.236Z,100813.06
2022-11-29T05:22:26.568Z,100807.13
2022-11-29T05:25:02.172Z,100796.34
2022-11-29T05:28:04.469Z,100787.44
2022-11-29T05:31:06.114Z,100797.03
2022-11-29T05:34:13.311Z,100784.97
2022-11-29T05:37:10.424Z,100781.44
2022-11-29T05:39:59.666Z,100774.13
2022-11-29T05:42:40.522Z,100771.56
2022-11-29T05:45:25.082Z,100762.00
2022-11-29T05:48:26.622Z,100759.06
2022-11-29T05:51:07.291Z,100760.34
2022-11-29T05:53:48.953Z,100764.72
2022-11-29T05:56:49.453Z,100752.00
2022-11-29T05:59:26.001Z,100750.75
2022-11-29T06:02:30.682Z,100746.53
2022-11-29T06:05:32.620Z,100748.63
2022-11-29T06:08:35.221Z,100741.34
2022-11-29T06:11:28.640Z,100740.53
2022-11-29T06:14:21.821Z,100737.78
2022-11-29T06:16:53.013Z,100743.00
2022-11-29T06:19:54.045Z,100742.00
2022-11-29T06:22:35.258Z,100743.69
2022-11-29T06:26:03.688Z,100738.28
2022-11-29T06:28:56.808Z,100743.06
2022-11-29T06:31:34.813Z,100727.22
2022-11-29T06:34:11.362Z,100725.75
2022-11-29T06:37:04.205Z,100722.00
2022-11-29T06:39:35.957Z,100715.75
2022-11-29T06:42:06.863Z,100719.50
2022-11-29T06:44:37.939Z,100715.34
2022-11-29T06:47:32.384Z,100731.59
2022-11-29T06:50:26.124Z,100726.19
2022-11-29T06:53:17.494Z,100730.78
2022-11-29T06:56:00.019Z,100734.91
2022-11-29T06:58:36.383Z,100736.63
2022-11-29T07:01:28.591Z,100735.97
2022-11-29T07:04:52.610Z,100736.63
2022-11-29T07:07:25.236Z,100744.94
2022-11-29T07:10:00.472Z,100747.44
2022-11-29T07:12:31.683Z,100742.63
2022-11-29T07:15:02.571Z,100743.06
2022-11-29T07:17:41.044Z,100746.81
2022-11-29T07:20:23.680Z,100751.19
2022-11-29T07:23:15.303Z,100741.78
2022-11-29T07:25:51.192Z,100740.13
2022-11-29T07:28:27.695Z,100735.53
2022-11-29T07:31:31.783Z,100736.78
2022-11-29T07:34:19.977Z,100737.41
2022-11-29T07:37:12.616Z,100737.84
2022-11-29T07:40:04.933Z,100742.41
2022-11-29T07:42:45.258Z,100744.09
2022-11-29T07:45:27.731Z,100744.09
2022-11-29T07:47:58.212Z,100739.28
2022-11-29T07:50:29.417Z,100749.09
2022-11-29T07:53:01.071Z,100741.59
2022-11-29T07:55:33.368Z,100738.88
2022-11-29T07:58:06.737Z,100744.28
2022-11-29T08:00:37.413Z,100749.09
2022-11-29T08:03:07.782Z,100746.78
2022-11-29T08:05:39.602Z,100744.72
2022-11-29T08:08:10.733Z,100752.84
2022-11-29T08:10:42.060Z,100753.25
2022-11-29T08:13:12.819Z,100761.38
2022-11-29T08:15:46.852Z,100751.16
2022-11-29T08:18:17.794Z,100757.81
2022-11-29T08:20:48.876Z,100770.56
2022-11-29T08:23:19.145Z,100766.81
2022-11-29T08:25:50.338Z,100773.25
2022-11-29T08:28:20.632Z,100771.59
2022-11-29T08:30:51.193Z,100778.69
2022-11-29T08:33:21.455Z,100784.09
2022-11-29T08:35:51.963Z,100777.00
2022-11-29T08:38:25.054Z,100778.88
2022-11-29T08:40:57.931Z,100786.81
2022-11-29T08:43:29.186Z,100792.00
2022-11-29T08:46:00.949Z,100789.94
2022-11-29T08:48:31.869Z,100795.75
2022-11-29T08:51:02.871Z,100808.69
2022-11-29T08:53:42.572Z,100799.06
2022-11-29T08:57:04.534Z,100805.34
2022-11-29T08:59:07.569Z,100813.28
2022-11-29T09:01:37.949Z,100818.66
2022-11-29T09:04:11.591Z,100815.06
2022-11-29T09:06:46.367Z,100821.34
2022-11-29T09:09:17.420Z,100817.34
2022-11-29T09:11:49.562Z,100822.78
2022-11-29T09:14:23.168Z,100819.00
2022-11-29T09:16:53.992Z,100817.31
2022-11-29T09:19:28.378Z,100811.09
2022-11-29T09:22:02.298Z,100821.47
2022-11-29T09:24:35.286Z,100831.88
2022-11-29T09:27:05.602Z,100835.00
2022-11-29T09:29:36.209Z,100828.94
2022-11-29T09:32:07.698Z,100837.25
2022-11-29T09:34:38.448Z,100846.41
2022-11-29T09:37:08.962Z,100845.59
2022-11-29T09:39:41.188Z,100843.94
2022-11-29T09:42:32.656Z,100853.28
2022-11-29T09:45:03.263Z,100858.03
2022-11-29T09:47:40.670Z,100865.97
2022-11-29T09:50:44.144Z,100865.97
2022-11-29T09:53:48.455Z,100876.81
2022-11-29T09:56:46.141Z,100879.72
2022-11-29T09:59:43.760Z,100894.69
2022-11-29T10:02:35.489Z,100906.69
2022-11-29T10:05:50.705Z,100903.81
2022-11-29T10:08:34.923Z,100909.63
2022-11-29T10:11:18.888Z,100914.19
2022-11-29T10:13:55.180Z,100919.94
2022-11-29T10:16:34.796Z,100934.94
2022-11-29T10:19:44.470Z,100929.31
2022-11-29T10:22:14.869Z,100933.28
2022-11-29T10:24:48.657Z,100929.94
2022-11-29T10:27:22.163Z,100940.75
2022-11-29T10:29:53.548Z,100939.00
2022-11-29T10:32:25.809Z,100939.88
2022-11-29T10:34:58.505Z,100949.00
2022-11-29T10:37:33.657Z,100958.56
2022-11-29T10:40:09.032Z,100964.34
2022-11-29T10:42:55.087Z,100975.56
2022-11-29T10:45:31.605Z,100979.56
2022-11-29T10:48:12.026Z,100986.38
2022-11-29T10:50:45.051Z,100988.44
2022-11-29T10:53:25.137Z,100994.03
2022-11-29T10:56:07.254Z,100992.19
2022-11-29T10:58:38.431Z,101002.38
2022-11-29T11:01:10.213Z,100998.00
2022-11-29T11:03:43.109Z,101002.09
2022-11-29T11:06:19.973Z,100996.69
2022-11-29T11:08:56.919Z,101007.25
2022-11-29T11:11:33.533Z,101020.13
2022-11-29T11:14:28.633Z,101026.47
2022-11-29T11:17:27.158Z,101030.97
2022-11-29T11:20:06.623Z,101029.03
2022-11-29T11:22:40.783Z,101030.38
2022-11-29T11:25:29.835Z,101031.28
2022-11-29T11:28:14.692Z,101033.41
2022-11-29T11:30:59.052Z,101030.06
2022-11-29T11:33:32.252Z,101034.63
2022-11-29T11:36:10.799Z,101037.16
2022-11-29T11:39:13.053Z,101035.72
2022-11-29T11:42:02.541Z,101033.41
2022-11-29T11:44:49.216Z,101036.28
2022-11-29T11:47:28.260Z,101035.91
2022-11-29T11:50:13.557Z,101032.56
2022-11-29T11:52:54.163Z,101043.38
2022-11-29T11:55:38.318Z,101047.97
2022-11-29T11:58:14.806Z,101052.91
2022-11-29T12:01:07.587Z,101053.75
2022-11-29T12:04:01.037Z,101055.44
2022-11-29T12:06:31.355Z,101063.28
2022-11-29T12:09:27.690Z,101057.88
2022-11-29T12:12:21.969Z,101051.44
2022-11-29T12:14:57.598Z,101052.66
2022-11-29T12:17:39.494Z,101051.19
2022-11-29T12:20:29.511Z,101056.59
2022-11-29T12:23:16.068Z,101052.00
2022-11-29T12:26:07.202Z,101076.84
2022-11-29T12:28:41.780Z,101066.88
2022-11-29T12:31:18.346Z,101073.97
2022-11-29T12:34:15.776Z,101059.47
2022-11-29T12:37:11.340Z,101076.28
2022-11-29T12:39:59.550Z,101078.63
2022-11-29T12:43:01.031Z,101084.66
2022-11-29T12:45:36.832Z,101080.47
2022-11-29T12:48:44.078Z,101086.34
2022-11-29T12:51:37.079Z,101094.00
2022-11-29T12:54:21.800Z,101101.94
2022-11-29T12:57:44.210Z,101092.78
2022-11-29T13:00:20.398Z,101093.81
2022-11-29T13:02:51.221Z,101098.19
2022-11-29T13:05:44.767Z,101098.19
2022-11-29T13:08:34.709Z,101095.66
2022-11-29T13:11:10.593Z,101096.03
2022-11-29T13:14:03.808Z,101101.28
2022-11-29T13:17:06.846Z,101096.91
2022-11-29T13:19:46.136Z,101098.56
2022-11-29T13:22:29.445Z,101096.91
2022-11-29T13:25:05.578Z,101089.81
2022-11-29T13:27:42.050Z,101089.81
2022-11-29T13:30:16.694Z,101079.00
2022-11-29T13:32:52.914Z,101079.00
2022-11-29T13:35:35.836Z,101083.38
2022-11-29T13:38:35.514Z,101081.06
2022-11-29T13:41:28.958Z,101089.16
2022-11-29T13:44:26.536Z,101085.13
2022-11-29T13:47:10.674Z,101088.00
2022-11-29T13:50:03.398Z,101090.91
2022-11-29T13:52:43.395Z,101084.22
2022-11-29T13:55:29.542Z,101086.28
2022-11-29T13:58:20.936Z,101087.31
2022-11-29T14:00:53.180Z,101078.75
2022-11-29T14:03:31.033Z,101083.28
2022-11-29T14:06:13.692Z,101086.66
2022-11-29T14:11:44.900Z,101080.31
2022-11-29T14:14:18.039Z,101075.28
2022-11-29T14:16:52.309Z,101077.16
2022-11-29T14:19:27.627Z,101077.72
2022-11-29T14:22:09.045Z,101070.25
2022-11-29T14:24:50.307Z,101072.97
2022-11-29T14:27:31.681Z,101065.06
2022-11-29T14:30:32.192Z,101065.88
2022-11-29T14:33:50.453Z,101063.56
2022-11-29T14:36:57.663Z,101060.84
2022-11-29T14:39:49.617Z,101063.94
2022-11-29T14:42:41.027Z,101061.16
2022-11-29T14:45:32.925Z,101063.88
2022-11-29T14:48:14.149Z,101062.19
2022-11-29T14:51:21.891Z,101053.88
2022-11-29T14:54:23.807Z,101065.91
2022-11-29T14:56:58.530Z,101065.44
2022-11-29T14:59:50.465Z,101071.59
2022-11-29T15:06:01.996Z,101070.75
2022-11-29T15:09:15.716Z,101064.84
2022-11-29T15:12:31.845Z,101068.22
2022-11-29T15:15:40.405Z,101066.53
2022-11-29T15:18:52.494Z,101057.78
2022-11-29T15:22:15.579Z,101066.25
2022-11-29T15:25:02.298Z,101069.69
2022-11-29T15:27:50.401Z,101067.00
2022-11-29T15:30:32.965Z,101067.47
2022-11-29T15:33:13.223Z,101063.09
2022-11-29T15:35:57.506Z,101059.53
2022-11-29T15:38:33.692Z,101062.25
2022-11-29T15:41:12.417Z,101062.63
2022-11-29T15:44:10.112Z,101051.44
2022-11-29T15:46:43.924Z,101060.13
2022-11-29T15:49:33.763Z,101052.66
2022-11-29T15:52:20.071Z,101055.53
2022-11-29T15:55:03.425Z,101047.63
2022-11-29T15:57:41.256Z,101047.81
2022-11-29T16:00:28.786Z,101046.97
2022-11-29T16:03:14.841Z,101046.31
2022-11-29T16:05:59.703Z,101043.63
2022-11-29T16:08:47.884Z,101038.41
2022-11-29T16:11:28.921Z,101044.81
2022-11-29T16:14:34.196Z,101033.00
2022-11-29T16:17:23.463Z,101037.94
2022-11-29T16:20:25.625Z,101030.94
2022-11-29T16:23:40.661Z,101035.69
2022-11-29T16:26:46.762Z,101031.06
2022-11-29T16:29:41.596Z,101030.03
2022-11-29T16:32:36.815Z,101031.31
2022-11-29T16:35:38.461Z,101033.41
2022-11-29T16:38:48.845Z,101028.38
2022-11-29T16:41:48.694Z,101028.38
2022-11-29T16:44:56.104Z,101021.75
2022-11-29T16:48:00.026Z,101032.84
2022-11-29T16:50:58.896Z,101036.34
2022-11-29T16:53:57.756Z,101029.13
2022-11-29T16:56:39.750Z,101032.09
2022-11-29T16:59:27.594Z,101043.94
2022-11-29T17:02:17.402Z,101040.56
2022-11-29T17:04:56.570Z,101050.41
2022-11-29T17:07:40.176Z,101031.31
2022-11-29T17:10:20.369Z,101032.53
2022-11-29T17:12:53.598Z,101041.66
2022-11-29T17:15:26.000Z,101042.69
2022-11-29T17:17:58.948Z,101045.75
2022-11-29T17:20:31.855Z,101035.31
2022-11-29T17:23:05.979Z,101035.97
2022-11-29T17:25:38.407Z,101028.25
2022-11-29T17:28:11.129Z,101028.59
2022-11-29T17:30:43.532Z,101021.06
2022-11-29T17:33:17.204Z,101019.84
2022-11-29T17:35:50.203Z,101011.66
2022-11-29T17:38:22.816Z,101004.03
2022-11-29T17:40:55.430Z,101005.03
2022-11-29T17:43:29.073Z,101001.03
2022-11-29T17:46:12.924Z,101008.75
2022-11-29T17:48:48.716Z,100997.97
2022-11-29T17:51:50.548Z,100985.22
2022-11-29T17:54:20.467Z,100993.97
2022-11-29T17:56:53.664Z,100991.25
2022-11-29T17:59:28.037Z,100988.09
2022-11-29T18:02:00.666Z,100999.38
2022-11-29T18:04:38.869Z,100988.59
2022-11-29T18:07:11.786Z,100984.88
2022-11-29T18:09:44.447Z,100986.25
2022-11-29T18:12:17.236Z,100987.94
2022-11-29T18:14:53.850Z,100972.63
2022-11-29T18:17:26.649Z,100969.63
2022-11-29T18:19:59.294Z,100968.75
2022-11-29T18:22:31.956Z,100970.44
2022-11-29T18:25:30.753Z,100966.72
2022-11-29T18:27:57.225Z,100976.19
2022-11-29T18:30:30.291Z,100968.97
2022-11-29T18:33:02.834Z,100975.38
2022-11-29T18:35:35.424Z,100964.75
2022-11-29T18:38:16.423Z,100954.31
2022-11-29T18:40:49.225Z,100955.53
2022-11-29T18:43:21.781Z,100946.25
2022-11-29T18:45:57.756Z,100949.94
2022-11-29T18:48:32.648Z,100955.66
2022-11-29T18:51:08.523Z,100946.72
2022-11-29T18:53:41.376Z,100944.56
2022-11-29T18:56:17.092Z,100946.59
2022-11-29T18:58:58.199Z,100950.31
2022-11-29T19:01:33.176Z,100953.66
2022-11-29T19:04:05.405Z,100944.91
2022-11-29T19:06:39.942Z,100950.31
2022-11-29T19:09:17.692Z,100949.66
2022-11-29T19:11:53.057Z,100941.09
2022-11-29T19:14:25.360Z,100934.84
2022-11-29T19:16:57.728Z,100941.94
2022-11-29T19:19:34.234Z,100941.94
2022-11-29T19:22:06.812Z,100935.72
2022-11-29T19:24:39.197Z,100942.28
2022-11-29T19:27:12.060Z,100938.47
2022-11-29T19:29:44.363Z,100940.69
2022-11-29T19:32:16.564Z,100935.59
2022-11-29T19:34:49.463Z,100943.00
2022-11-29T19:37:22.304Z,100937.81
2022-11-29T19:39:55.120Z,100945.41
2022-11-29T19:42:28.083Z,100949.47
2022-11-29T19:45:19.482Z,100952.84
2022-11-29T19:47:50.956Z,100946.78
2022-11-29T19:50:21.594Z,100946.13
2022-11-29T19:52:52.415Z,100942.59
2022-11-29T19:55:23.095Z,100942.81
2022-11-29T19:57:54.327Z,100948.00
2022-11-29T20:00:24.882Z,100962.69
2022-11-29T20:02:56.178Z,100952.25
2022-11-29T20:05:28.153Z,100958.47
2022-11-29T20:07:58.469Z,100957.66
2022-11-29T20:10:29.210Z,100953.44
2022-11-29T20:12:59.553Z,100943.50
2022-11-29T20:15:30.281Z,100937.28
2022-11-29T20:18:04.025Z,100936.91
2022-11-29T20:20:35.250Z,100931.03
2022-11-29T20:23:06.004Z,100938.13
2022-11-29T20:25:37.323Z,100948.25
2022-11-29T20:28:07.994Z,100948.72
2022-11-29T20:30:38.561Z,100940.47
2022-11-29T20:33:10.664Z,100943.88
2022-11-29T20:35:41.777Z,100944.56
2022-11-29T20:38:35.602Z,100954.97
2022-11-29T20:41:22.341Z,100956.34
2022-11-29T20:44:33.536Z,100947.59
2022-11-29T20:48:12.120Z,100951.97
2022-11-29T20:50:45.587Z,100956.69
2022-11-29T20:53:30.930Z,100958.53
2022-11-29T20:56:01.666Z,100960.78
2022-11-29T20:58:32.443Z,100962.13
2022-11-29T21:01:04.893Z,100957.22
2022-11-29T21:03:35.877Z,100961.44
2022-11-29T21:06:07.578Z,100954.72
2022-11-29T21:08:38.717Z,100956.09
2022-11-29T21:11:11.230Z,100965.66
2022-11-29T21:13:42.650Z,100965.50
2022-11-29T21:16:14.455Z,100966.88
2022-11-29T21:18:45.452Z,100970.03
2022-11-29T21:21:30.628Z,100966.97
2022-11-29T21:24:04.851Z,100959.59
2022-11-29T21:26:44.338Z,100966.38
2022-11-29T21:29:22.137Z,100954.91
2022-11-29T21:31:54.884Z,100957.94
2022-11-29T21:34:25.104Z,100963.31
2022-11-29T21:36:58.546Z,100971.41
2022-11-29T21:39:35.702Z,100973.97
2022-11-29T21:42:06.667Z,100967.91
2022-11-29T21:44:37.256Z,100986.47
2022-11-29T21:47:08.741Z,100982.09
2022-11-29T21:49:39.081Z,100984.25
2022-11-29T21:52:09.572Z,100987.47
2022-11-29T21:54:41.023Z,100993.22
2022-11-29T21:57:14.204Z,100996.72
2022-11-29T21:59:47.770Z,100998.59
2022-11-29T22:02:18.047Z,101002.78
2022-11-29T22:04:49.383Z,101003.63
2022-11-29T22:07:20.381Z,101006.00
2022-11-29T22:09:53.756Z,101004.34
2022-11-29T22:12:34.194Z,101009.22
2022-11-29T22:15:09.279Z,101019.47
2022-11-29T22:17:39.764Z,101017.97
2022-11-29T22:20:10.161Z,101017.47
2022-11-29T22:22:40.854Z,101018.31
2022-11-29T22:25:13.598Z,101030.28
2022-11-29T22:27:43.895Z,101028.59
2022-11-29T22:30:14.683Z,101028.25
2022-11-29T22:32:45.484Z,101033.66
2022-11-29T22:35:15.918Z,101040.72
2022-11-29T22:37:49.467Z,101043.56
2022-11-29T22:40:20.580Z,101048.94
2022-11-29T22:42:51.514Z,101054.84
2022-11-29T22:45:24.796Z,101053.19
2022-11-29T22:47:56.517Z,101043.56
2022-11-29T22:50:27.734Z,101053.31
2022-11-29T22:52:58.285Z,101059.91
2022-11-29T22:55:28.828Z,101048.13
2022-11-29T22:58:02.352Z,101049.47
2022-11-29T23:00:33.394Z,101042.03
2022-11-29T23:03:03.928Z,101045.25
2022-11-29T23:05:34.652Z,101045.41
2022-11-29T23:08:05.074Z,101038.16
2022-11-29T23:10:37.589Z,101038.00
2022-11-29T23:13:08.421Z,101040.34
2022-11-29T23:15:39.015Z,101040.50
2022-11-29T23:18:12.115Z,101027.69
2022-11-29T23:20:42.671Z,101041.34
2022-11-29T23:23:13.195Z,101034.44
2022-11-29T23:25:51.142Z,101033.78
2022-11-29T23:28:21.370Z,101042.19
2022-11-29T23:30:52.612Z,101043.41
2022-11-29T23:33:25.120Z,101046.75
2022-11-29T23:36:04.105Z,101054.16
2022-11-29T23:38:35.343Z,101052.47
2022-11-29T23:41:07.465Z,101063.94
2022-11-29T23:43:38.990Z,101063.59
2022-11-29T23:46:12.932Z,101066.94
2022-11-29T23:48:43.910Z,101075.34
2022-11-29T23:51:15.278Z,101076.34
2022-11-29T23:53:47.674Z,101080.72
2022-11-29T23:56:18.950Z,101074.16
2022-11-29T23:58:49.781Z,101077.50
